createdAt,value
2018-11-05T00:07:47.814Z,33.67
2018-11-05T00:13:30.835Z,34.67
2018-11-05T00:16:31.254Z,34.03
2018-11-05T00:19:13.910Z,38.60
2018-11-05T00:22:02.841Z,38.83
2018-11-05T00:24:37.539Z,33.13
2018-11-05T00:27:30.202Z,37.78
2018-11-05T00:30:20.866Z,35.00
2018-11-05T00:33:00.664Z,36.53
2018-11-05T00:41:38.297Z,36.20
2018-11-05T00:44:15.078Z,41.80
2018-11-05T00:47:18.902Z,36.40
2018-11-05T00:52:45.314Z,37.43
2018-11-05T00:55:27.580Z,36.00
2018-11-05T00:58:17.545Z,36.90
2018-11-05T01:01:12.384Z,40.33
2018-11-05T01:07:15.445Z,36.07
2018-11-05T01:10:18.699Z,38.60
2018-11-05T01:12:56.632Z,36.70
2018-11-05T01:15:46.883Z,35.53
2018-11-05T01:18:47.975Z,36.83
2018-11-05T01:21:29.632Z,34.87
2018-11-05T01:24:10.038Z,33.57
2018-11-05T01:26:56.629Z,33.90
2018-11-05T01:29:41.853Z,31.57
2018-11-05T01:32:21.974Z,33.33
2018-11-05T01:35:25.675Z,33.77
2018-11-05T01:38:07.508Z,31.93
2018-11-05T01:46:28.538Z,31.47
2018-11-05T01:49:18.132Z,43.93
2018-11-05T01:52:01.131Z,33.90
2018-11-05T01:57:42.187Z,36.13
2018-11-05T02:00:46.552Z,34.70
2018-11-05T02:03:34.842Z,32.23
2018-11-05T02:06:29.048Z,32.83
2018-11-05T02:09:20.417Z,34.50
2018-11-05T02:12:07.029Z,37.13
2018-11-05T02:14:55.907Z,30.87
2018-11-05T02:17:56.141Z,33.17
2018-11-05T02:20:43.760Z,28.93
2018-11-05T02:26:35.026Z,33.50
2018-11-05T02:29:24.636Z,32.33
2018-11-05T02:32:17.617Z,28.20
2018-11-05T02:35:03.460Z,33.90
2018-11-05T02:37:52.461Z,29.37
2018-11-05T02:40:38.172Z,31.80
2018-11-05T02:43:40.554Z,29.73
2018-11-05T02:53:28.670Z,30.67
2018-11-05T02:56:14.481Z,34.07
2018-11-05T03:01:48.241Z,34.33
2018-11-05T03:04:31.388Z,37.33
2018-11-05T03:07:15.931Z,39.27
2018-11-05T03:10:06.180Z,32.10
2018-11-05T03:13:07.431Z,48.57
2018-11-05T03:15:59.393Z,34.13
2018-11-05T03:18:45.017Z,33.93
2018-11-05T03:21:40.971Z,38.70
2018-11-05T03:24:29.262Z,41.10
2018-11-05T03:27:25.602Z,42.70
2018-11-05T03:30:09.129Z,42.97
2018-11-05T03:32:55.851Z,41.77
2018-11-05T03:35:45.778Z,35.03
2018-11-05T03:38:28.577Z,39.80
2018-11-05T03:41:13.473Z,40.07
2018-11-05T03:43:52.871Z,44.30
2018-11-05T03:46:32.143Z,44.03
2018-11-05T03:49:20.568Z,35.73
2018-11-05T03:54:53.776Z,38.93
2018-11-05T03:57:34.435Z,39.33
2018-11-05T04:00:21.163Z,48.60
2018-11-05T04:03:11.844Z,34.13
2018-11-05T04:06:05.271Z,32.20
2018-11-05T04:08:44.118Z,37.03
2018-11-05T04:11:28.156Z,37.33
2018-11-05T04:14:13.309Z,34.00
2018-11-05T04:16:51.142Z,38.40
2018-11-05T04:19:40.378Z,36.23
2018-11-05T04:22:24.328Z,39.70
2018-11-05T04:25:12.200Z,35.27
2018-11-05T04:27:58.370Z,39.73
2018-11-05T04:30:38.498Z,39.97
2018-11-05T04:33:24.285Z,41.73
2018-11-05T04:36:07.640Z,35.53
2018-11-05T04:38:58.247Z,35.77
2018-11-05T04:41:51.823Z,40.33
2018-11-05T04:44:45.365Z,34.10
2018-11-05T04:47:32.725Z,39.42
2018-11-05T04:50:20.193Z,36.50
2018-11-05T04:53:01.435Z,36.67
2018-11-05T04:55:53.216Z,33.73
2018-11-05T04:58:45.513Z,35.87
2018-11-05T05:04:12.667Z,37.13
2018-11-05T05:07:41.960Z,37.10
2018-11-05T05:10:33.103Z,43.47
2018-11-05T05:13:25.711Z,43.70
2018-11-05T05:16:07.820Z,35.03
2018-11-05T05:19:20.629Z,56.00
2018-11-05T05:24:48.258Z,39.80
2018-11-05T05:32:39.073Z,40.37
2018-11-05T05:35:42.466Z,39.98
2018-11-05T05:38:34.486Z,43.90
2018-11-05T05:41:30.922Z,41.40
2018-11-05T05:44:11.850Z,42.63
2018-11-05T05:46:53.626Z,40.17
2018-11-05T05:49:43.310Z,43.80
2018-11-05T05:55:50.926Z,43.27
2018-11-05T05:58:35.064Z,43.30
2018-11-05T06:06:17.333Z,37.00
2018-11-05T06:09:02.313Z,43.10
2018-11-05T06:16:27.789Z,41.47
2018-11-05T06:30:51.164Z,43.60
2018-11-05T06:33:57.122Z,38.60
2018-11-05T06:37:01.594Z,41.83
2018-11-05T06:40:22.244Z,42.40
2018-11-05T06:43:30.374Z,37.07
2018-11-05T06:46:16.934Z,41.53
2018-11-05T06:49:06.705Z,39.90
2018-11-05T06:51:50.223Z,37.50
2018-11-05T06:54:48.212Z,48.20
2018-11-05T06:58:04.159Z,42.87
2018-11-05T07:00:57.137Z,46.57
2018-11-05T07:08:43.726Z,50.53
2018-11-05T07:11:36.211Z,47.30
2018-11-05T07:14:20.336Z,48.30
2018-11-05T07:17:05.439Z,46.70
2018-11-05T07:22:46.517Z,51.63
2018-11-05T07:25:34.630Z,52.43
2018-11-05T07:28:17.065Z,48.53
2018-11-05T07:31:07.912Z,53.83
2018-11-05T07:39:45.976Z,60.33
2018-11-05T07:42:48.460Z,51.53
2018-11-05T07:45:49.373Z,61.70
2018-11-05T07:49:41.747Z,46.53
2018-11-05T07:52:28.803Z,57.80
2018-11-05T07:55:08.444Z,76.93
2018-11-05T08:06:23.574Z,65.87
2018-11-05T08:14:22.713Z,77.37
2018-11-05T08:17:12.776Z,69.30
2018-11-05T08:20:03.073Z,55.73
2018-11-05T08:22:54.918Z,66.97
2018-11-05T08:25:54.405Z,64.27
2018-11-05T08:29:02.548Z,61.67
2018-11-05T08:31:59.954Z,57.07
2018-11-05T09:52:24.519Z,65.27
2018-11-05T09:55:12.888Z,61.93
2018-11-05T10:02:58.594Z,60.93
2018-11-05T10:10:59.159Z,48.70
2018-11-05T10:13:49.532Z,55.00
2018-11-05T10:16:42.161Z,42.50
2018-11-05T10:19:34.302Z,38.50
2018-11-05T10:22:26.628Z,38.40
2018-11-05T10:50:21.599Z,41.20
2018-11-05T10:53:23.415Z,42.62
2018-11-05T10:56:21.022Z,49.90
2018-11-05T11:06:34.034Z,44.53
2018-11-05T11:09:19.900Z,45.40
2018-11-05T11:17:37.515Z,40.97
2018-11-05T11:22:36.593Z,38.63
2018-11-05T11:28:18.413Z,35.70
2018-11-05T11:31:10.806Z,44.60
2018-11-05T11:34:01.693Z,36.23
2018-11-05T11:36:43.230Z,36.83
2018-11-05T11:39:36.134Z,42.37
2018-11-05T11:42:29.151Z,38.43
2018-11-05T11:45:24.158Z,39.00
2018-11-05T11:48:43.796Z,34.37
2018-11-05T11:58:05.862Z,41.77
2018-11-05T12:01:19.293Z,38.13
2018-11-05T12:04:05.874Z,36.70
2018-11-05T12:06:52.249Z,40.30
2018-11-05T12:12:37.968Z,36.40
2018-11-05T12:19:54.827Z,33.80
2018-11-05T12:22:50.933Z,33.15
2018-11-05T12:25:50.067Z,37.90
2018-11-05T12:28:40.398Z,34.53
2018-11-05T12:31:23.034Z,35.40
2018-11-05T12:39:41.812Z,34.20
2018-11-05T12:43:23.930Z,39.07
2018-11-05T12:46:19.846Z,41.03
2018-11-05T12:54:16.204Z,30.10
2018-11-05T12:57:00.716Z,38.33
2018-11-05T13:00:00.417Z,42.23
2018-11-05T13:08:51.853Z,37.00
2018-11-05T13:11:49.685Z,33.37
2018-11-05T13:14:38.047Z,41.10
2018-11-05T13:17:24.173Z,34.77
2018-11-05T13:20:44.772Z,48.23
2018-11-05T13:23:35.829Z,34.60
2018-11-05T13:26:43.014Z,37.00
2018-11-05T13:29:35.097Z,37.03
2018-11-05T13:35:43.560Z,27.90
2018-11-05T13:38:44.019Z,37.10
2018-11-05T13:44:48.855Z,29.17
2018-11-05T13:53:45.519Z,32.70
2018-11-05T13:56:32.802Z,35.00
2018-11-05T13:59:18.381Z,34.10
2018-11-05T14:02:10.924Z,34.80
2018-11-05T14:11:30.080Z,33.53
2018-11-05T14:17:31.195Z,32.17
2018-11-05T14:20:30.835Z,35.33
2018-11-05T14:23:38.088Z,35.53
2018-11-05T14:28:44.721Z,33.73
2018-11-05T14:31:37.833Z,28.47
2018-11-05T14:34:23.269Z,29.60
2018-11-05T14:37:11.553Z,29.70
2018-11-05T14:43:16.895Z,31.80
2018-11-05T14:46:06.691Z,30.27
2018-11-05T14:49:00.983Z,34.50
2018-11-05T14:51:51.276Z,30.10
2018-11-05T14:54:35.643Z,33.73
2018-11-05T14:57:50.603Z,32.70
2018-11-05T15:52:26.595Z,46.70
2018-11-05T15:55:26.353Z,41.20
2018-11-05T15:58:24.435Z,52.77
2018-11-05T16:04:21.923Z,45.67
2018-11-05T16:07:35.781Z,52.03
2018-11-05T16:15:34.068Z,51.00
2018-11-05T16:18:44.880Z,52.10
2018-11-05T16:21:42.375Z,47.87
2018-11-05T16:24:38.162Z,54.83
2018-11-05T16:27:35.253Z,52.80
2018-11-05T16:30:52.894Z,58.23
2018-11-05T16:46:30.946Z,55.20
2018-11-05T16:49:20.315Z,53.07
2018-11-05T16:52:08.291Z,52.00
2018-11-05T17:00:07.794Z,51.00
2018-11-05T17:02:57.171Z,56.35
2018-11-05T17:06:22.961Z,47.90
2018-11-05T17:09:16.593Z,55.30
2018-11-05T17:12:06.882Z,46.20
2018-11-05T17:14:49.170Z,48.93
2018-11-05T17:17:34.114Z,52.80
2018-11-05T17:20:27.557Z,47.80
2018-11-05T17:23:25.241Z,44.07
2018-11-05T17:26:30.721Z,56.07
2018-11-05T17:29:38.481Z,49.83
2018-11-05T17:32:18.238Z,51.83
2018-11-05T17:35:20.953Z,48.80
2018-11-05T17:38:02.752Z,58.60
2018-11-05T17:41:23.451Z,54.30
2018-11-05T17:44:20.602Z,51.03
2018-11-05T17:53:27.651Z,61.07
2018-11-05T17:56:19.011Z,48.83
2018-11-05T17:59:03.147Z,49.50
2018-11-05T18:13:33.656Z,54.83
2018-11-05T18:22:41.318Z,59.17
2018-11-05T18:30:09.040Z,58.20
2018-11-05T18:33:03.662Z,51.18
2018-11-05T18:35:53.968Z,52.10
2018-11-05T18:38:55.655Z,48.60
2018-11-05T18:42:09.969Z,45.83
2018-11-05T19:24:20.226Z,44.77
2018-11-05T19:35:13.870Z,53.10
2018-11-05T19:38:11.825Z,55.83
2018-11-05T19:44:09.294Z,57.77
2018-11-05T19:46:52.596Z,55.45
2018-11-05T19:49:48.396Z,53.00
2018-11-05T20:04:48.468Z,53.30
2018-11-05T20:07:54.893Z,44.23
2018-11-05T20:10:51.543Z,50.23
2018-11-05T20:13:44.153Z,46.30
2018-11-05T20:16:36.683Z,40.77
2018-11-05T20:39:47.391Z,39.80
2018-11-05T20:48:35.259Z,45.13
2018-11-05T20:51:28.607Z,34.55
2018-11-05T20:54:38.359Z,34.80
2018-11-05T20:57:49.143Z,38.10
2018-11-05T21:00:45.604Z,44.37
2018-11-05T21:03:36.440Z,43.63
2018-11-05T21:15:29.288Z,86.63
2018-11-05T21:23:30.144Z,37.53
2018-11-05T21:29:33.797Z,37.93
2018-11-05T21:32:24.044Z,35.70
2018-11-05T21:35:26.347Z,40.67
2018-11-05T21:38:12.427Z,36.70
2018-11-05T21:42:43.921Z,46.03
2018-11-05T21:45:46.664Z,39.23
2018-11-05T22:09:15.349Z,40.17
2018-11-05T22:13:07.808Z,36.67
2018-11-05T22:15:55.987Z,37.93
2018-11-05T22:29:41.714Z,36.17
2018-11-05T22:32:29.451Z,42.33
2018-11-05T22:35:11.837Z,35.73
2018-11-05T22:38:17.586Z,39.17
2018-11-05T22:41:11.914Z,40.20
2018-11-05T22:43:58.697Z,34.73
2018-11-05T22:52:43.112Z,38.17
2018-11-05T22:55:32.473Z,34.47
2018-11-05T22:58:23.201Z,41.17
2018-11-05T23:01:11.169Z,31.80
2018-11-05T23:06:54.702Z,34.33
2018-11-05T23:09:37.761Z,34.73
2018-11-05T23:21:56.409Z,32.40
2018-11-05T23:37:33.558Z,35.13
2018-11-05T23:40:13.638Z,36.35
2018-11-05T23:42:54.416Z,34.87
2018-11-05T23:45:34.770Z,31.30
2018-11-05T23:48:38.325Z,31.20
2018-11-05T23:51:49.024Z,29.13
2018-11-05T23:54:41.660Z,31.33
2018-11-05T23:57:22.113Z,32.30
